Time;durP1;ratioP1;P1;durP2;ratioP2;P2;SDS_P1;SDS_P2;PMS_P1;PMS_P2;Temp;Humidity;BMP_temperature;BMP_pressure;BME280_temperature;BME280_humidity;BME280_pressure;Samples;Min_cycle;Max_cycle;Signal;HPM_P1;HPM_P2
2022/12/14 00:02:38;;;;;;;10.27;8.07;;;;;;;19.48;42.11;96024.53;10495285;28;20052;-57
2022/12/14 00:07:58;;;;;;;9.38;7.45;;;;;;;19.47;42.14;96020.25;10496279;28;20094;-59
2022/12/14 00:13:18;;;;;;;8.57;7.68;;;;;;;19.44;42.13;96018.22;10496309;28;20060;-58
2022/12/14 00:18:38;;;;;;;9.38;7.68;;;;;;;19.42;42.14;96015.06;10496735;28;20048;-59
2022/12/14 00:23:58;;;;;;;9.07;7.57;;;;;;;19.39;42.07;95996.88;10496629;28;20049;-58
2022/12/14 00:29:18;;;;;;;10.27;7.28;;;;;;;19.38;41.95;95995.28;10495714;28;20056;-58
2022/12/14 00:34:37;;;;;;;9.02;7.13;;;;;;;19.36;42.13;95994.84;10496559;28;20044;-58
2022/12/14 00:39:56;;;;;;;8.98;7.10;;;;;;;19.34;42.15;95975.47;10495658;28;20068;-59
2022/12/14 00:45:16;;;;;;;9.60;6.82;;;;;;;19.32;42.05;95972.34;10496393;28;20061;-58
2022/12/14 00:50:36;;;;;;;9.18;7.03;;;;;;;19.30;41.92;95971.91;10482741;28;20083;-58
2022/12/14 00:55:55;;;;;;;8.98;6.90;;;;;;;19.28;42.13;95966.06;10495335;28;20049;-58
2022/12/14 01:01:14;;;;;;;8.27;7.05;;;;;;;19.25;42.07;95956.72;10495542;28;20056;-58
2022/12/14 01:06:34;;;;;;;7.75;6.72;;;;;;;19.25;42.04;95953.22;10507102;28;20380;-59
2022/12/14 01:11:53;;;;;;;7.65;6.40;;;;;;;19.22;42.05;95967.44;10495550;28;20048;-58
2022/12/14 01:17:13;;;;;;;8.23;6.45;;;;;;;19.20;42.03;95939.97;10498090;28;20057;-58
2022/12/14 01:22:32;;;;;;;7.47;6.68;;;;;;;19.18;42.06;95940.31;10503642;28;20048;-58
2022/12/14 01:27:52;;;;;;;9.05;6.25;;;;;;;19.16;41.94;95948.75;10502639;28;20068;-58
2022/12/14 01:33:11;;;;;;;6.88;6.18;;;;;;;19.13;41.87;95949.44;10502396;28;20056;-58
2022/12/14 01:38:30;;;;;;;7.53;6.25;;;;;;;19.12;41.89;95945.16;10502243;28;20158;-58
2022/12/14 01:43:55;;;;;;;7.93;6.05;;;;;;;19.10;41.98;95952.03;10502569;28;20458;-57
2022/12/14 01:49:36;;;;;;;6.43;5.78;;;;;;;19.08;41.82;95943.50;10502111;28;20052;-49
2022/12/14 01:54:59;;;;;;;8.00;5.93;;;;;;;19.05;41.88;95939.59;10494190;28;20392;-58
2022/12/14 02:00:19;;;;;;;6.30;5.70;;;;;;;19.03;41.87;95927.53;10515775;28;20040;-48
2022/12/14 02:05:43;;;;;;;6.57;5.70;;;;;;;19.02;41.71;95925.97;10501141;28;20110;-46
2022/12/14 02:11:02;;;;;;;6.03;5.43;;;;;;;18.99;41.79;95902.34;10500812;28;20522;-48
2022/12/14 02:16:22;;;;;;;7.10;5.53;;;;;;;18.97;41.85;95902.69;10472135;28;20049;-48
2022/12/14 02:22:19;;;;;;;6.50;5.80;;;;;;;18.96;41.56;95895.72;10514323;28;20166;-48
2022/12/14 02:28:08;;;;;;;5.68;5.07;;;;;;;18.94;41.80;95895.28;10514034;28;20495;-46
2022/12/14 02:33:38;;;;;;;6.53;5.43;;;;;;;18.90;41.65;95880.91;10446128;28;20057;-45
2022/12/14 02:39:09;;;;;;;6.70;5.35;;;;;;;18.89;41.59;95882.81;10500081;28;20415;-45
2022/12/14 02:44:44;;;;;;;5.90;5.30;;;;;;;18.85;41.41;95871.13;10513320;28;20043;-46
2022/12/14 02:50:23;;;;;;;5.18;4.68;;;;;;;18.84;41.35;95872.25;10499754;28;20057;-47
2022/12/14 02:55:47;;;;;;;;;;;;;;;18.81;40.88;95861.38;10513621;28;20041;-46
2022/12/14 03:01:12;;;;;;;5.50;4.93;;;;;;;18.78;41.41;95863.59;10484614;28;19942;-45
2022/12/14 03:06:31;;;;;;;5.65;5.05;;;;;;;18.76;41.36;95855.06;10487574;28;20063;-46
2022/12/14 03:11:55;;;;;;;5.65;4.95;;;;;;;18.74;41.28;95854.63;10512394;28;20040;-49
2022/12/14 03:17:17;;;;;;;6.15;4.78;;;;;;;18.73;41.35;95863.03;10498671;28;20071;-47
2022/12/14 03:22:49;;;;;;;7.13;4.75;;;;;;;18.70;41.28;95845.63;10475142;28;20060;-46
2022/12/14 03:28:25;;;;;;;5.63;5.00;;;;;;;18.69;41.43;95844.03;10483386;28;20048;-47
2022/12/14 03:33:45;;;;;;;5.40;4.90;;;;;;;18.68;41.44;95838.97;10493807;28;20048;-47
2022/12/14 03:39:07;;;;;;;5.32;4.65;;;;;;;18.65;41.35;95831.59;10482082;28;20121;-48
2022/12/14 03:44:55;;;;;;;4.88;4.38;;;;;;;18.62;41.39;95822.28;10482572;28;20061;-45
2022/12/14 03:50:45;;;;;;;4.90;4.22;;;;;;;18.60;41.00;95804.84;10491355;28;20052;-45
2022/12/14 03:56:10;;;;;;;5.50;4.70;;;;;;;18.58;41.35;95813.28;10491318;28;20041;-47
2022/12/14 04:01:41;;;;;;;5.75;4.50;;;;;;;18.56;41.17;95816.34;10496968;28;20048;-47
2022/12/14 04:07:19;;;;;;;5.40;4.35;;;;;;;18.54;41.18;95809.69;10486289;28;20053;-47
2022/12/14 04:30:14;;;;;;;4.80;3.85;;;;;;;18.45;41.30;95784.78;10485971;28;20052;-47
2022/12/14 04:35:39;;;;;;;4.82;4.05;;;;;;;18.43;41.24;95776.25;10496575;28;20048;-45
2022/12/14 04:41:03;;;;;;;4.85;4.10;;;;;;;18.41;41.33;95779.28;10480559;28;20060;-45
2022/12/14 04:46:25;;;;;;;4.43;4.03;;;;;;;18.40;41.15;95760.75;10496238;28;20448;-46
2022/12/14 04:51:54;;;;;;;5.18;3.90;;;;;;;18.37;41.15;95757.59;10511487;28;20044;-47
2022/12/14 04:57:14;;;;;;;;;;;;;;;18.35;40.76;95753.69;10490245;28;20049;-47
2022/12/14 05:02:41;;;;;;;4.32;3.92;;;;;;;18.33;41.26;95751.31;10504348;28;19920;-45
2022/12/14 05:08:19;;;;;;;4.97;4.03;;;;;;;18.30;41.24;95746.59;10503151;28;20127;-47
2022/12/14 05:13:45;;;;;;;5.27;4.10;;;;;;;18.30;41.20;95738.50;10503675;28;20049;-46
2022/12/14 05:19:08;;;;;;;4.20;3.72;;;;;;;18.28;41.58;95726.50;10489718;28;20060;-45
2022/12/14 05:24:28;;;;;;;4.30;3.88;;;;;;;18.28;41.63;95724.59;10503615;28;20060;-45
2022/12/14 05:29:47;;;;;;;3.92;3.53;;;;;;;18.26;41.75;95724.16;10503217;28;20053;-45
2022/12/14 05:35:09;;;;;;;4.75;3.80;;;;;;;18.27;41.83;95724.94;10502112;28;20059;-47
2022/12/14 05:40:28;;;;;;;4.55;3.88;;;;;;;18.27;41.66;95697.97;10486974;28;20052;-46
2022/12/14 05:45:47;;;;;;;4.13;3.50;;;;;;;18.28;41.84;95686.06;10487106;28;20044;-45
2022/12/14 05:51:08;;;;;;;4.93;4.03;;;;;;;18.28;41.93;95681.44;10515658;28;20044;-47
2022/12/14 05:56:28;;;;;;;5.15;3.80;;;;;;;18.30;42.03;95670.34;10500489;28;20503;-45
2022/12/14 06:01:48;;;;;;;4.40;4.00;;;;;;;18.31;41.99;95688.88;10483028;28;20527;-48
2022/12/14 06:07:11;;;;;;;4.55;3.78;;;;;;;18.32;42.03;95679.63;10465308;28;20056;-45
2022/12/14 06:12:30;;;;;;;8.32;4.28;;;;;;;18.32;42.21;95685.03;10487622;28;20458;-45
2022/12/14 06:17:50;;;;;;;8.23;4.50;;;;;;;18.35;42.09;95683.59;10492806;28;20049;-47
2022/12/14 06:23:09;;;;;;;6.63;4.28;;;;;;;18.37;42.52;95671.31;10482274;28;20037;-45
2022/12/14 06:28:29;;;;;;;6.07;3.80;;;;;;;18.40;42.36;95658.28;10466828;28;20098;-45
2022/12/14 06:33:48;;;;;;;5.68;4.18;;;;;;;18.42;42.57;95645.22;10474226;28;20048;-46
2022/12/14 06:39:12;;;;;;;6.70;4.28;;;;;;;18.44;42.53;95634.88;10494183;28;20048;-46
2022/12/14 06:44:31;;;;;;;7.43;4.38;;;;;;;18.47;42.46;95634.22;10500557;28;20057;-46
2022/12/14 06:49:50;;;;;;;5.25;4.13;;;;;;;18.49;42.58;95637.34;10488698;28;20059;-46
2022/12/14 06:55:10;;;;;;;6.13;4.15;;;;;;;18.52;42.79;95644.72;10483845;28;20053;-46
2022/12/14 07:00:29;;;;;;;6.32;4.03;;;;;;;18.53;42.86;95649.00;10513021;28;20506;-46
2022/12/14 07:05:55;;;;;;;6.50;4.10;;;;;;;18.56;42.89;95648.28;10485347;28;20056;-45
2022/12/14 07:11:15;;;;;;;5.35;3.90;;;;;;;18.59;43.02;95628.75;10483218;28;20488;-46
2022/12/14 07:16:35;;;;;;;7.15;4.45;;;;;;;18.63;42.98;95628.84;10468489;28;20059;-46
2022/12/14 07:21:55;;;;;;;5.30;3.88;;;;;;;18.63;42.87;95628.84;10479826;28;20106;-44
2022/12/14 07:27:17;;;;;;;6.13;3.90;;;;;;;18.66;43.08;95623.53;10495638;28;20381;-45
2022/12/14 07:32:36;;;;;;;7.43;3.70;;;;;;;18.69;43.02;95617.44;10505444;28;20044;-45
2022/12/14 07:37:56;;;;;;;5.93;4.18;;;;;;;18.72;43.00;95614.06;10487447;28;20079;-46
2022/12/14 07:43:17;;;;;;;5.75;3.72;;;;;;;18.75;43.29;95610.66;10503083;28;20731;-49
2022/12/14 07:48:37;;;;;;;9.75;8.40;;;;;;;18.75;40.28;95624.13;10479111;28;20056;-48
2022/12/14 07:53:57;;;;;;;8.88;5.03;;;;;;;18.80;41.83;95617.75;10484051;28;20060;-46
2022/12/14 07:59:17;;;;;;;8.60;5.05;;;;;;;18.82;42.06;95615.47;10510471;28;20044;-46
2022/12/14 08:04:36;;;;;;;6.18;4.22;;;;;;;18.86;42.45;95613.66;10490250;28;20534;-45
2022/12/14 08:09:56;;;;;;;6.40;4.72;;;;;;;18.90;42.00;95611.81;10493239;28;20052;-47
2022/12/14 08:15:15;;;;;;;8.13;4.32;;;;;;;18.92;41.99;95608.78;10496862;28;20052;-47
2022/12/14 08:20:35;;;;;;;6.95;4.53;;;;;;;18.96;42.15;95604.25;10475047;28;20049;-48
2022/12/14 08:25:55;;;;;;;5.53;4.07;;;;;;;18.99;42.45;95605.47;10479098;28;20082;-47
2022/12/14 08:31:17;;;;;;;6.95;4.30;;;;;;;19.02;42.78;95600.16;10465548;28;20045;-45
2022/12/14 08:36:37;;;;;;;8.15;4.40;;;;;;;19.06;42.66;95592.91;10464673;28;20056;-47
2022/12/14 08:41:56;;;;;;;7.80;4.40;;;;;;;19.11;42.89;95605.34;10463558;28;20053;-46
2022/12/14 08:47:16;;;;;;;10.25;4.20;;;;;;;19.12;43.36;95580.72;10480500;28;20041;-47
2022/12/14 08:52:35;;;;;;;6.93;4.18;;;;;;;19.16;43.20;95568.09;10486030;28;20044;-47
2022/12/14 08:57:55;;;;;;;7.63;3.95;;;;;;;19.21;43.53;95577.03;10461346;28;20492;-45
2022/12/14 09:03:14;;;;;;;10.38;4.40;;;;;;;19.25;43.60;95586.00;10477149;28;20037;-48
2022/12/14 09:08:34;;;;;;;9.82;4.88;;;;;;;19.28;43.97;95571.81;10473000;28;20044;-48
2022/12/14 09:13:54;;;;;;;7.82;4.18;;;;;;;19.31;44.01;95561.09;10475343;28;20057;-46
2022/12/14 09:19:14;;;;;;;7.20;4.00;;;;;;;19.34;43.99;95565.00;10493591;28;20044;-45
2022/12/14 09:24:34;;;;;;;9.85;4.80;;;;;;;19.37;43.93;95542.72;10460341;28;20132;-45
2022/12/14 09:29:53;;;;;;;8.15;4.30;;;;;;;19.41;44.24;95550.88;10483603;28;20125;-45
2022/12/14 09:35:15;;;;;;;8.43;4.30;;;;;;;19.43;44.31;95535.88;10495399;28;20106;-50
2022/12/14 09:40:35;;;;;;;7.53;3.85;;;;;;;19.45;44.12;95538.25;10480933;28;20049;-59
2022/12/14 09:45:59;;;;;;;9.60;4.15;;;;;;;19.50;44.16;95535.25;10454157;28;20122;-45
2022/12/14 09:51:20;;;;;;;10.52;3.72;;;;;;;19.51;44.02;95532.19;10477979;28;20422;-50
2022/12/14 09:56:40;;;;;;;7.88;3.97;;;;;;;19.54;43.96;95528.81;10467664;28;20055;-51
2022/12/14 10:02:47;;;;;;;11.07;4.30;;;;;;;19.56;44.78;95514.91;10507993;28;20067;-50
2022/12/14 10:08:10;;;;;;;7.53;3.85;;;;;;;19.62;45.61;95493.81;10498784;28;20384;-48
2022/12/14 10:13:35;;;;;;;9.85;4.88;;;;;;;19.63;44.57;95485.34;10496113;28;20056;-49
2022/12/14 10:19:07;;;;;;;9.80;4.75;;;;;;;19.65;44.60;95476.91;10496959;28;20048;-48
2022/12/14 10:24:35;;;;;;;10.82;4.75;;;;;;;19.65;44.46;95487.69;10500200;28;20106;-45
2022/12/14 10:30:14;;;;;;;7.47;4.53;;;;;;;19.65;44.49;95476.91;10500053;28;20048;-49
2022/12/14 10:35:37;;;;;;;6.40;4.18;;;;;;;19.67;44.68;95464.59;10499801;28;20044;-49
2022/12/14 10:41:04;;;;;;;8.18;3.85;;;;;;;19.67;44.66;95442.19;10479287;28;20478;-48
2022/12/14 10:46:55;;;;;;;8.75;4.40;;;;;;;19.69;44.04;95407.50;10482952;28;20044;-51
2022/12/14 10:52:17;;;;;;;6.53;4.28;;;;;;;19.71;43.91;95416.03;10477225;28;20098;-46
2022/12/14 10:57:37;;;;;;;6.18;4.28;;;;;;;19.73;43.72;95419.94;10498467;28;20059;-47
2022/12/14 11:02:56;;;;;;;10.90;4.10;;;;;;;19.75;44.21;95379.06;10497774;28;20056;-49
2022/12/14 11:08:39;;;;;;;11.93;4.07;;;;;;;19.78;44.51;95321.63;10496414;28;20063;-49
2022/12/14 11:14:07;;;;;;;5.78;4.15;;;;;;;19.81;44.19;95399.25;10498201;28;20503;-50
2022/12/14 11:19:27;;;;;;;6.15;3.78;;;;;;;19.83;44.42;95324.00;10498405;28;20105;-50
2022/12/14 11:24:47;;;;;;;6.25;3.80;;;;;;;19.86;44.86;95301.66;10498517;28;20056;-51
2022/12/14 11:30:15;;;;;;;5.32;3.90;;;;;;;19.89;44.97;95314.44;10498121;28;20060;-50
2022/12/14 11:35:34;;;;;;;6.80;3.97;;;;;;;19.91;42.53;95314.84;10483106;28;20060;-51
2022/12/14 11:40:55;;;;;;;7.13;4.70;;;;;;;19.92;42.90;95311.03;10486402;28;20064;-48
2022/12/14 11:46:14;;;;;;;7.40;4.63;;;;;;;19.94;43.00;95303.34;10495870;28;20043;-51
2022/12/14 11:51:34;;;;;;;5.28;4.38;;;;;;;19.97;42.89;95319.97;10510576;28;20055;-50
2022/12/14 11:57:22;;;;;;;4.80;4.03;;;;;;;19.97;42.52;95318.03;10496231;28;20048;-52
2022/12/14 12:03:05;;;;;;;5.45;4.78;;;;;;;20.00;42.77;95321.97;10480975;28;20563;-50
2022/12/14 12:08:26;;;;;;;6.93;4.53;;;;;;;20.01;42.92;95334.31;10491306;28;20106;-51
2022/12/14 12:13:50;;;;;;;5.88;4.05;;;;;;;20.02;43.04;95320.44;10494985;28;20484;-50
2022/12/14 12:19:20;;;;;;;5.45;4.28;;;;;;;20.04;42.59;95323.56;10509837;28;20130;-51
2022/12/14 12:24:57;;;;;;;6.32;4.25;;;;;;;20.04;42.37;95330.91;10481472;28;20496;-51
2022/12/14 12:30:28;;;;;;;6.30;4.38;;;;;;;20.05;42.29;95325.13;10481262;28;20056;-51
2022/12/14 12:35:55;;;;;;;12.75;9.05;;;;;;;20.05;39.53;95322.44;10491972;28;20108;-51
2022/12/14 12:41:30;;;;;;;5.20;4.47;;;;;;;20.04;41.12;95301.16;10482682;28;20052;-50
2022/12/14 12:47:01;;;;;;;6.30;4.75;;;;;;;20.05;41.48;95262.97;10481134;28;20044;-50
2022/12/14 12:52:24;;;;;;;5.85;4.72;;;;;;;20.08;41.81;95280.38;10481187;28;20052;-49
2022/12/14 12:57:46;;;;;;;4.97;4.47;;;;;;;20.09;41.80;95263.78;10480917;28;20053;-48
2022/12/14 13:03:36;;;;;;;8.55;4.95;;;;;;;20.11;41.26;95233.66;10489650;28;20044;-50
2022/12/14 13:09:01;;;;;;;5.85;4.82;;;;;;;20.10;41.48;95243.72;10486969;28;20056;-50
2022/12/14 13:14:30;;;;;;;5.72;4.65;;;;;;;20.11;41.61;95236.38;10452295;28;20052;-48
2022/12/14 13:19:51;;;;;;;5.25;4.45;;;;;;;20.10;41.97;95235.59;10472374;28;20044;-49
2022/12/14 13:25:15;;;;;;;5.43;4.45;;;;;;;20.12;41.55;95238.72;10455441;28;20048;-48
2022/12/14 13:31:02;;;;;;;5.25;4.40;;;;;;;20.13;41.56;95212.44;10496319;28;20523;-52
2022/12/14 13:36:44;;;;;;;5.53;4.43;;;;;;;20.14;41.55;95227.53;10494540;28;20049;-52
2022/12/14 13:42:24;;;;;;;4.65;4.15;;;;;;;20.14;41.60;95236.44;10500465;28;20051;-51
2022/12/14 13:47:54;;;;;;;4.15;3.72;;;;;;;20.16;41.99;95233.34;10499107;28;20102;-52
2022/12/14 13:53:17;;;;;;;5.68;4.05;;;;;;;20.17;41.85;95226.03;10501749;28;20052;-50
2022/12/14 13:58:41;;;;;;;5.10;3.95;;;;;;;20.18;42.00;95212.16;10486624;28;20057;-52
2022/12/14 14:04:12;;;;;;;5.00;4.10;;;;;;;20.20;41.70;95207.16;10487799;28;20059;-51
2022/12/14 14:09:31;;;;;;;4.32;3.92;;;;;;;20.20;41.89;95209.84;10501069;28;20053;-51
2022/12/14 14:15:01;;;;;;;5.30;4.07;;;;;;;20.21;41.88;95202.50;10501279;28;20049;-49
2022/12/14 14:20:36;;;;;;;4.25;3.75;;;;;;;20.23;42.32;95197.50;10501283;28;20385;-49
2022/12/14 14:26:17;;;;;;;5.55;3.95;;;;;;;20.24;42.37;95182.88;10500607;28;20056;-50
2022/12/14 14:32:20;;;;;;;4.45;4.00;;;;;;;20.26;42.43;95185.97;10500931;28;20052;-51
2022/12/14 14:37:40;;;;;;;4.10;3.67;;;;;;;20.26;42.22;95175.16;10490850;28;20075;-49
2022/12/14 14:42:59;;;;;;;4.10;3.70;;;;;;;20.27;42.04;95155.88;10499858;28;20088;-51
2022/12/14 14:48:48;;;;;;;5.38;3.83;;;;;;;20.27;42.28;95147.75;10500323;28;20048;-50
2022/12/14 14:54:16;;;;;;;4.35;3.95;;;;;;;20.28;42.19;95151.22;10504462;28;20048;-50
2022/12/14 14:59:42;;;;;;;4.35;3.88;;;;;;;20.28;42.08;95141.19;10499291;28;20056;-50
2022/12/14 15:05:03;;;;;;;4.53;3.88;;;;;;;20.31;42.22;95142.41;10465485;28;20053;-50
2022/12/14 15:10:34;;;;;;;4.65;3.95;;;;;;;20.32;41.53;95152.81;10479772;28;20039;-49
2022/12/14 15:15:56;;;;;;;5.47;3.70;;;;;;;20.34;41.85;95163.28;10459138;28;20396;-48
2022/12/14 15:21:17;;;;;;;5.32;4.00;;;;;;;20.35;41.99;95156.72;10467357;28;20053;-48
2022/12/14 15:26:37;;;;;;;4.60;3.83;;;;;;;20.35;41.78;95145.91;10470087;28;20074;-49
2022/12/14 15:31:59;;;;;;;4.07;3.67;;;;;;;20.36;41.50;95152.88;10478797;28;20048;-47
2022/12/14 15:37:24;;;;;;;4.30;3.90;;;;;;;20.37;41.65;95151.72;10470477;28;20049;-49
2022/12/14 15:43:17;;;;;;;4.07;3.67;;;;;;;20.37;41.29;95162.56;10467090;28;20056;-48
2022/12/14 15:48:37;;;;;;;4.97;3.80;;;;;;;20.39;41.29;95162.97;10448542;28;20381;-48
2022/12/14 15:53:57;;;;;;;4.70;4.13;;;;;;;20.40;40.89;95147.50;10461599;28;20040;-50
2022/12/14 15:59:21;;;;;;;4.38;3.70;;;;;;;20.40;41.34;95145.56;10462212;28;20510;-48
2022/12/14 16:04:41;;;;;;;4.82;3.70;;;;;;;20.43;41.42;95141.38;10506233;28;20090;-51
2022/12/14 16:10:02;;;;;;;4.70;4.05;;;;;;;20.43;41.34;95130.56;10492624;28;20064;-50
2022/12/14 16:15:25;;;;;;;4.05;3.60;;;;;;;20.44;41.18;95137.50;10455316;28;20052;-49
2022/12/14 16:20:54;;;;;;;3.92;3.53;;;;;;;20.44;41.06;95127.44;10444864;28;20057;-51
2022/12/14 16:26:14;;;;;;;7.00;3.83;;;;;;;20.45;40.90;95141.78;10472857;28;20057;-50
2022/12/14 16:31:35;;;;;;;4.00;3.60;;;;;;;20.47;41.08;95134.06;10479157;28;20090;-50
2022/12/14 16:37:03;;;;;;;4.72;3.60;;;;;;;20.48;41.21;95141.03;10470958;28;20071;-52
2022/12/14 16:42:25;;;;;;;4.43;3.43;;;;;;;20.50;41.65;95144.13;10466897;28;20056;-51
2022/12/14 16:48:02;;;;;;;4.07;3.65;;;;;;;20.52;41.19;95139.13;10494737;28;20052;-52
2022/12/14 16:53:28;;;;;;;4.15;3.75;;;;;;;20.53;41.59;95138.00;10494670;28;20066;-52
2022/12/14 16:59:01;;;;;;;4.38;3.40;;;;;;;20.52;41.06;95137.22;10487530;28;20873;-52
2022/12/14 17:04:20;;;;;;;4.20;3.72;;;;;;;20.53;41.45;95140.69;10484388;28;20427;-50
2022/12/14 17:09:40;;;;;;;4.95;3.40;;;;;;;20.53;41.46;95141.47;10486284;28;20479;-50
2022/12/14 17:15:00;;;;;;;3.80;3.47;;;;;;;20.54;41.46;95136.81;10474462;28;20056;-51
2022/12/14 17:20:28;;;;;;;4.13;3.55;;;;;;;20.54;41.43;95132.22;10472467;28;20056;-52
2022/12/14 17:25:48;;;;;;;4.82;3.55;;;;;;;20.57;41.68;95146.16;10473392;28;20044;-49
2022/12/14 17:31:09;;;;;;;4.50;4.10;;;;;;;20.60;41.26;95140.81;10503099;28;20609;-51
2022/12/14 17:36:29;;;;;;;4.13;3.72;;;;;;;20.58;41.31;95132.25;10474618;28;20041;-51
2022/12/14 17:41:49;;;;;;;4.95;3.70;;;;;;;20.58;41.01;95134.97;10491073;28;20048;-51
2022/12/14 17:47:12;;;;;;;4.22;3.83;;;;;;;20.60;41.44;95145.44;10489884;28;20060;-47
2022/12/14 17:52:32;;;;;;;5.40;3.92;;;;;;;20.60;41.68;95146.22;10508881;28;20060;-51
2022/12/14 17:57:53;;;;;;;5.03;3.80;;;;;;;20.61;41.50;95130.75;10506373;28;20044;-50
2022/12/14 18:03:14;;;;;;;3.92;3.55;;;;;;;20.62;41.37;95151.25;10483606;28;20052;-50
2022/12/14 18:08:33;;;;;;;5.57;4.10;;;;;;;20.62;41.83;95164.78;10509373;28;20040;-50
2022/12/14 18:13:53;;;;;;;5.57;3.42;;;;;;;20.62;41.58;95159.34;10501039;28;20483;-50
2022/12/14 18:19:12;;;;;;;4.32;3.63;;;;;;;20.63;41.20;95161.69;10501795;28;20053;-51
2022/12/14 18:24:32;;;;;;;4.10;3.70;;;;;;;20.64;41.52;95168.69;10500473;28;20064;-51
2022/12/14 18:29:51;;;;;;;4.43;3.75;;;;;;;20.66;41.31;95166.38;10503160;28;20044;-48
2022/12/14 18:35:19;;;;;;;3.97;3.53;;;;;;;20.66;41.39;95166.38;10500349;28;20450;-51
2022/12/14 18:40:40;;;;;;;5.27;3.80;;;;;;;20.68;41.55;95176.81;10499504;28;20057;-51
2022/12/14 18:46:00;;;;;;;4.30;3.65;;;;;;;20.69;41.61;95176.44;10477418;28;20044;-49
2022/12/14 18:51:22;;;;;;;3.63;3.30;;;;;;;20.69;41.53;95176.44;10482871;28;20111;-48
2022/12/14 18:56:42;;;;;;;3.83;3.53;;;;;;;20.71;41.40;95186.91;10466161;28;20045;-50
2022/12/14 19:02:01;;;;;;;4.18;3.72;;;;;;;20.70;41.32;95175.31;10466283;28;20052;-51
2022/12/14 19:07:21;;;;;;;3.85;3.40;;;;;;;20.73;41.22;95181.91;10481761;28;20423;-50
2022/12/14 19:12:44;;;;;;;4.20;3.80;;;;;;;20.74;41.55;95173.41;10490123;28;20392;-52
2022/12/14 19:18:04;;;;;;;4.88;4.22;;;;;;;20.76;41.31;95180.38;10499023;28;20106;-49
2022/12/14 19:23:23;;;;;;;3.75;3.45;;;;;;;20.76;41.41;95180.38;10498610;28;20135;-50
2022/12/14 19:28:42;;;;;;;4.10;3.72;;;;;;;20.76;41.37;95177.66;10498799;28;20055;-50
2022/12/14 19:34:02;;;;;;;5.15;3.60;;;;;;;20.77;41.39;95195.47;10498132;28;20048;-48
2022/12/14 19:39:22;;;;;;;4.22;3.47;;;;;;;20.76;41.32;95199.31;10497673;28;20052;-49
2022/12/14 19:44:42;;;;;;;3.95;3.40;;;;;;;20.76;41.42;95202.03;10498246;28;20059;-49
2022/12/14 19:50:04;;;;;;;3.63;3.33;;;;;;;20.76;41.39;95219.06;10497673;28;20118;-49
2022/12/14 19:55:23;;;;;;;5.03;4.30;;;;;;;20.77;41.11;95234.13;10502372;28;20523;-49
2022/12/14 20:00:43;;;;;;;4.07;3.67;;;;;;;20.77;41.02;95242.25;10497381;28;20052;-50
2022/12/14 20:06:03;;;;;;;4.43;3.70;;;;;;;20.78;41.76;95243.03;10499423;28;20037;-59
2022/12/14 20:11:24;;;;;;;4.70;3.58;;;;;;;20.80;41.76;95238.06;10493146;28;20450;-59
2022/12/14 20:16:43;;;;;;;4.05;3.65;;;;;;;20.79;41.74;95231.06;10477524;28;20044;-58
2022/12/14 20:22:03;;;;;;;4.07;3.63;;;;;;;20.79;41.76;95228.34;10464358;28;20060;-72
2022/12/14 20:27:23;;;;;;;6.53;3.70;;;;;;;20.79;42.01;95220.25;10467171;28;20045;-68
2022/12/14 20:32:42;;;;;;;4.72;4.00;;;;;;;20.79;41.89;95222.94;10475778;28;20477;-55
2022/12/14 20:38:02;;;;;;;6.50;4.00;;;;;;;20.81;41.87;95217.94;10461744;28;20496;-60
2022/12/14 20:43:22;;;;;;;4.90;3.80;;;;;;;20.80;42.07;95227.22;10462523;28;20071;-51
2022/12/14 20:48:41;;;;;;;4.20;3.63;;;;;;;20.81;41.94;95231.47;10464757;28;20044;-60
2022/12/14 20:54:02;;;;;;;4.63;3.85;;;;;;;20.79;42.17;95233.78;10470761;28;20080;-57
2022/12/14 20:59:22;;;;;;;6.72;4.13;;;;;;;20.77;42.40;95253.06;10456176;28;20049;-51
2022/12/14 21:04:41;;;;;;;8.02;4.45;;;;;;;20.76;42.79;95248.03;10464529;28;20063;-58
2022/12/14 21:10:01;;;;;;;6.80;4.35;;;;;;;20.74;42.94;95265.44;10485479;28;20071;-51
2022/12/14 21:15:20;;;;;;;7.93;4.75;;;;;;;20.73;43.02;95269.28;10492092;28;20056;-50
2022/12/14 21:20:39;;;;;;;6.38;4.60;;;;;;;20.71;43.06;95279.69;10479470;28;20048;-51
2022/12/14 21:26:03;;;;;;;6.38;4.55;;;;;;;20.70;43.17;95288.97;10494237;28;20182;-49
2022/12/14 21:31:23;;;;;;;6.47;4.80;;;;;;;20.69;43.38;95300.16;10493550;28;20102;-51
2022/12/14 21:36:42;;;;;;;7.25;4.43;;;;;;;20.68;43.04;95299.38;10498834;28;20040;-51
2022/12/14 21:42:12;;;;;;;5.78;4.32;;;;;;;20.66;43.30;95306.28;10499477;28;20056;-50
2022/12/14 21:47:32;;;;;;;6.70;4.25;;;;;;;20.65;43.47;95310.94;10488076;28;20048;-49
2022/12/14 21:52:52;;;;;;;5.38;4.15;;;;;;;20.63;43.28;95317.84;10502290;28;20049;-48
2022/12/14 21:58:17;;;;;;;5.93;4.43;;;;;;;20.62;43.19;95327.91;10515233;28;20040;-48
2022/12/14 22:03:37;;;;;;;5.55;3.83;;;;;;;20.60;43.38;95332.91;10501634;28;20049;-51
2022/12/14 22:08:58;;;;;;;5.03;4.50;;;;;;;20.58;43.37;95337.88;10501430;28;20484;-50
2022/12/14 22:14:20;;;;;;;5.68;4.13;;;;;;;20.56;43.47;95337.44;10501214;28;20053;-51
2022/12/14 22:19:40;;;;;;;7.05;4.55;;;;;;;20.55;43.61;95335.88;10514899;28;20036;-50
2022/12/14 22:25:00;;;;;;;6.50;4.43;;;;;;;20.53;43.38;95340.88;10501058;28;20056;-50
2022/12/14 22:30:20;;;;;;;5.78;4.75;;;;;;;20.51;43.27;95335.84;10487886;28;20519;-52
2022/12/14 22:35:39;;;;;;;4.88;4.18;;;;;;;20.49;43.24;95348.19;10500687;28;20075;-51
2022/12/14 22:41:03;;;;;;;5.20;4.30;;;;;;;20.47;43.33;95347.75;10506195;28;20052;-50
2022/12/14 22:46:24;;;;;;;5.82;4.25;;;;;;;20.44;43.76;95351.97;10497288;28;20048;-51
2022/12/14 22:51:44;;;;;;;4.72;4.05;;;;;;;20.44;43.39;95360.06;10500392;28;20048;-49
2022/12/14 22:57:07;;;;;;;4.90;4.40;;;;;;;20.43;43.93;95357.75;10500101;28;20077;-49
2022/12/14 23:02:28;;;;;;;4.88;4.22;;;;;;;20.40;43.86;95364.66;10483069;28;20052;-50
2022/12/14 23:07:47;;;;;;;4.85;3.95;;;;;;;20.40;43.83;95363.88;10486705;28;20049;-50
